Los Angeles, California
Traffic Map
Current Weather Conditions
Los Angeles, California
Scattered Clouds
Scattered Clouds
57°
Feels Like: 57°
Wind Chill: 57° Ceiling: Unl
Heat Index: 57° Visibility: 10mi
Dew Point: 51° Wind: 0mph
Humidity: 81% Direction: ° ()
Pressure: 30.23in Gusts: 0mph
Raw Report DataKCQT 240755Z AUTO 00000KT 10SM SCT020 14/11 A3023 RMK AO2 T01390106
Traffic Incident Summary
Active as of:
Severity:
Category:
InformationThere was an issue retrieving the traffic information for this location. Please try a different location or try again shortly.
Advertisements
Track Severe Weather on mobile